Time;durP1;ratioP1;P1;durP2;ratioP2;P2;SDS_P1;SDS_P2;PMS_P1;PMS_P2;Temp;Humidity;BMP_temperature;BMP_pressure;BME280_temperature;BME280_humidity;BME280_pressure;Samples;Min_cycle;Max_cycle;Signal;HPM_P1;HPM_P2
2022/10/13 00:01:45;;;;;;;21.83;14.10;;;;;;;10.55;90.31;101863.94;5047701;28;20022;-46
2022/10/13 00:04:10;;;;;;;21.25;13.98;;;;;;;10.55;90.29;101869.25;5050205;28;20040;-46
2022/10/13 00:06:35;;;;;;;22.27;14.23;;;;;;;10.54;89.98;101864.84;5052430;28;20020;-46
2022/10/13 00:09:00;;;;;;;25.50;14.63;;;;;;;10.55;90.56;101862.13;5068802;28;20122;-48
2022/10/13 00:11:28;;;;;;;23.10;14.07;;;;;;;10.55;90.50;101862.13;5055461;28;20025;-46
2022/10/13 00:13:59;;;;;;;23.08;14.07;;;;;;;10.55;90.70;101854.16;5067948;28;20111;-46
2022/10/13 00:16:25;;;;;;;22.85;14.05;;;;;;;10.57;90.33;101856.72;5061033;28;20032;-46
2022/10/13 00:18:51;;;;;;;27.15;14.60;;;;;;;10.57;90.53;101851.41;5052221;28;20045;-46
2022/10/13 00:21:19;;;;;;;24.58;14.80;;;;;;;10.55;90.70;101846.19;5045064;28;20033;-46
2022/10/13 00:23:44;;;;;;;24.57;14.23;;;;;;;10.56;90.68;101844.41;5050755;28;20017;-47
2022/10/13 00:26:13;;;;;;;23.88;13.90;;;;;;;10.55;90.70;101842.66;5045804;28;20649;-47
2022/10/13 00:28:38;;;;;;;22.08;14.32;;;;;;;10.54;90.52;101844.47;5050367;28;20032;-46
2022/10/13 00:31:20;;;;;;;26.20;15.00;;;;;;;10.56;90.58;101847.06;5051974;28;20017;-46
2022/10/13 00:33:46;;;;;;;21.75;13.25;;;;;;;10.55;90.77;101846.19;5045981;28;20372;-46
2022/10/13 00:36:11;;;;;;;22.05;14.15;;;;;;;10.54;90.94;101843.59;5065489;28;20101;-47
2022/10/13 00:38:37;;;;;;;20.92;14.48;;;;;;;10.54;90.91;101839.16;5072043;28;20036;-47
2022/10/13 00:41:03;;;;;;;26.98;14.38;;;;;;;10.54;90.91;101832.97;5069843;28;20031;-46
2022/10/13 00:43:47;;;;;;;23.20;13.95;;;;;;;10.57;90.70;101835.47;5064956;28;20033;-46
2022/10/13 00:46:13;;;;;;;24.42;13.65;;;;;;;10.55;91.01;101840.88;5052018;28;20025;-46
2022/10/13 00:48:40;;;;;;;24.33;14.10;;;;;;;10.57;91.09;101839.94;5081092;22;20079;-48
2022/10/13 00:51:06;;;;;;;22.33;13.90;;;;;;;10.57;90.81;101845.25;5028667;28;20033;-49
2022/10/13 00:53:35;;;;;;;19.35;13.82;;;;;;;10.57;91.15;101834.63;5035815;28;20029;-51
2022/10/13 00:56:00;;;;;;;22.88;14.20;;;;;;;10.58;91.08;101839.00;5022028;28;20060;-51
2022/10/13 00:58:30;;;;;;;23.02;13.63;;;;;;;10.58;91.00;101831.03;5034570;28;20025;-50
2022/10/13 01:00:57;;;;;;;24.48;13.63;;;;;;;10.59;91.20;101838.03;5036011;28;20356;-51
2022/10/13 01:03:23;;;;;;;23.33;13.40;;;;;;;10.58;91.14;101839.84;5036019;28;20072;-51
2022/10/13 01:05:51;;;;;;;22.67;14.65;;;;;;;10.59;91.59;101833.59;5032359;28;20029;-51
2022/10/13 01:08:18;;;;;;;24.13;14.70;;;;;;;10.58;91.12;101834.53;5035622;28;20052;-50
2022/10/13 01:11:17;;;;;;;26.67;14.40;;;;;;;10.61;91.34;101833.47;5035534;28;20459;-50
2022/10/13 01:13:49;;;;;;;;;;;;;;;10.66;89.40;101823.44;5023830;28;20529;-50
2022/10/13 01:16:40;;;;;;;25.50;14.30;;;;;;;10.60;90.91;101829.97;5035321;28;19951;-50
2022/10/13 01:19:09;;;;;;;22.27;13.52;;;;;;;10.60;90.96;101837.09;5030489;28;20212;-49
2022/10/13 01:21:42;;;;;;;27.00;14.35;;;;;;;10.60;90.85;101834.44;5034180;28;20025;-51
2022/10/13 01:24:10;;;;;;;25.63;14.27;;;;;;;10.59;91.31;101833.59;5034941;28;20034;-48
2022/10/13 01:26:58;;;;;;;21.10;14.15;;;;;;;10.59;91.08;101830.94;5035477;28;20029;-49
2022/10/13 01:29:48;;;;;;;23.73;13.88;;;;;;;10.59;91.35;101830.94;5024986;28;20494;-52
2022/10/13 01:32:22;;;;;;;27.00;14.80;;;;;;;10.61;91.73;101838.78;5025903;28;20079;-50
2022/10/13 01:35:08;;;;;;;28.50;14.40;;;;;;;10.59;91.54;101838.03;5035405;28;20041;-49
2022/10/13 01:37:47;;;;;;;26.73;14.98;;;;;;;10.58;91.53;101829.22;5034906;28;20056;-52
2022/10/13 01:40:36;;;;;;;25.35;14.27;;;;;;;10.59;91.53;101827.41;5034915;28;20032;-49
2022/10/13 01:43:05;;;;;;;24.45;13.70;;;;;;;10.59;91.82;101822.97;5006005;28;20096;-52
2022/10/13 01:45:37;;;;;;;24.13;14.32;;;;;;;10.59;91.80;101817.66;5035372;28;20048;-53
2022/10/13 01:48:04;;;;;;;26.70;14.55;;;;;;;10.59;91.93;101817.66;5033003;28;20033;-50
2022/10/13 01:50:31;;;;;;;28.60;14.07;;;;;;;10.61;91.77;101814.88;5035168;28;20176;-52
2022/10/13 01:53:00;;;;;;;23.23;13.77;;;;;;;10.62;92.06;101824.56;5024112;28;20394;-53
2022/10/13 01:55:25;;;;;;;25.63;13.93;;;;;;;10.63;92.10;101816.50;5030241;28;20084;-50
2022/10/13 01:57:50;;;;;;;21.23;13.77;;;;;;;10.62;91.73;101803.31;5032519;28;20474;-50
2022/10/13 02:00:19;;;;;;;21.58;13.73;;;;;;;10.63;91.74;101805.03;5035084;28;20025;-50
2022/10/13 02:02:59;;;;;;;21.83;12.63;;;;;;;10.63;91.82;101807.69;5031748;28;20034;-49
2022/10/13 02:05:32;;;;;;;28.67;14.30;;;;;;;10.65;92.16;101797.81;5034815;28;20287;-49
2022/10/13 02:08:09;;;;;;;27.15;14.80;;;;;;;10.64;92.09;101798.75;5026904;28;20025;-50
2022/10/13 02:10:49;;;;;;;22.13;14.00;;;;;;;10.66;92.13;101802.19;5034768;28;20040;-49
2022/10/13 02:13:18;;;;;;;21.67;13.70;;;;;;;10.68;92.76;101800.28;5026036;28;20490;-51
2022/10/13 02:15:51;;;;;;;22.58;13.85;;;;;;;10.67;92.49;101791.44;5034591;28;20032;-49
2022/10/13 02:18:21;;;;;;;24.20;14.20;;;;;;;10.69;92.51;101794.00;5027564;28;20030;-49
2022/10/13 02:20:47;;;;;;;22.75;13.40;;;;;;;10.69;92.67;101784.25;5034543;28;20021;-53
2022/10/13 02:23:15;;;;;;;21.17;13.23;;;;;;;10.70;92.56;101779.78;5034409;28;20457;-48
2022/10/13 02:25:41;;;;;;;22.38;13.20;;;;;;;10.69;92.24;101783.38;5032887;28;20033;-49
2022/10/13 02:28:07;;;;;;;25.35;13.15;;;;;;;10.72;92.77;101770.78;5029927;28;20034;-49
2022/10/13 02:30:33;;;;;;;19.40;12.68;;;;;;;10.72;92.48;101770.78;5021457;28;20460;-52
2022/10/13 02:32:59;;;;;;;21.20;12.88;;;;;;;10.73;92.67;101774.28;5034309;28;20033;-49
2022/10/13 02:35:24;;;;;;;21.35;13.00;;;;;;;10.73;92.25;101782.25;5018332;28;20061;-49
2022/10/13 02:37:50;;;;;;;24.02;12.88;;;;;;;10.73;92.50;101772.47;5033423;28;20048;-50
2022/10/13 02:40:15;;;;;;;20.58;13.00;;;;;;;10.75;92.63;101777.69;5034148;28;20041;-50
2022/10/13 02:42:41;;;;;;;20.98;12.40;;;;;;;10.78;93.06;101768.69;5033790;28;20040;-50
2022/10/13 02:45:07;;;;;;;21.42;12.68;;;;;;;10.78;92.79;101774.84;5032506;28;20037;-48
2022/10/13 02:47:32;;;;;;;21.77;12.52;;;;;;;10.79;92.69;101773.91;5033121;28;20025;-52
2022/10/13 02:49:57;;;;;;;21.10;12.25;;;;;;;10.81;92.53;101769.34;5033782;28;20514;-49
2022/10/13 02:52:23;;;;;;;23.38;12.68;;;;;;;10.82;92.63;101768.38;5033425;28;20078;-50
2022/10/13 02:54:48;;;;;;;20.27;12.25;;;;;;;10.84;92.43;101763.84;5023001;28;20034;-52
2022/10/13 02:57:13;;;;;;;18.90;12.35;;;;;;;10.83;92.58;101769.25;5033057;28;20029;-50
2022/10/13 02:59:38;;;;;;;16.73;11.73;;;;;;;10.85;92.41;101759.34;5033932;28;20026;-52
2022/10/13 03:02:04;;;;;;;18.15;12.23;;;;;;;10.84;92.32;101763.84;5033578;28;20523;-52
2022/10/13 03:04:29;;;;;;;19.65;11.77;;;;;;;10.85;92.33;101764.69;5029476;28;20116;-52
2022/10/13 03:06:54;;;;;;;21.83;12.53;;;;;;;10.84;92.25;101766.50;5033463;28;20034;-53
2022/10/13 03:09:20;;;;;;;20.13;12.57;;;;;;;10.87;92.34;101762.78;5032868;28;20627;-52
2022/10/13 03:11:45;;;;;;;22.77;12.38;;;;;;;10.87;92.92;101754.78;5032954;28;20025;-49
2022/10/13 03:14:10;;;;;;;15.95;11.30;;;;;;;10.86;92.69;101753.94;5032773;28;20025;-47
2022/10/13 03:16:35;;;;;;;18.23;11.52;;;;;;;10.85;92.76;101748.72;5028480;28;20029;-47
2022/10/13 03:19:01;;;;;;;22.92;12.65;;;;;;;10.87;92.81;101752.97;5033180;28;20454;-49
2022/10/13 03:21:26;;;;;;;24.00;11.85;;;;;;;10.87;92.58;101745.00;5033211;28;20025;-50
2022/10/13 03:23:51;;;;;;;18.15;11.57;;;;;;;10.88;92.96;101745.88;5033193;28;20044;-52
2022/10/13 03:26:16;;;;;;;21.40;12.30;;;;;;;10.86;92.57;101745.97;5032819;28;20031;-51
2022/10/13 03:28:42;;;;;;;20.35;12.43;;;;;;;10.87;92.46;101750.31;5032830;28;20021;-49
2022/10/13 03:31:09;;;;;;;20.20;11.60;;;;;;;10.89;92.78;101755.53;5033175;28;20021;-50
2022/10/13 03:33:35;;;;;;;17.90;12.00;;;;;;;10.89;92.84;101745.78;5032985;28;20530;-50
2022/10/13 03:36:02;;;;;;;20.40;12.93;;;;;;;10.89;92.89;101740.47;5031092;28;20104;-50
2022/10/13 03:38:29;;;;;;;25.58;11.70;;;;;;;10.89;93.12;101742.25;5032867;28;20060;-49
2022/10/13 03:40:54;;;;;;;19.63;12.15;;;;;;;10.91;93.03;101743.88;5032563;28;20072;-52
2022/10/13 03:43:20;;;;;;;19.63;12.25;;;;;;;10.92;92.94;101744.72;5023991;28;20026;-50
2022/10/13 03:45:58;;;;;;;15.23;11.63;;;;;;;10.93;93.09;101733.16;5032927;28;20032;-50
2022/10/13 03:48:23;;;;;;;18.90;11.82;;;;;;;10.92;92.80;101737.63;5029784;28;20103;-47
2022/10/13 03:50:49;;;;;;;21.00;12.45;;;;;;;10.93;93.03;101734.00;5032074;28;20029;-49
2022/10/13 03:53:14;;;;;;;22.65;12.10;;;;;;;10.93;92.80;101736.66;5029121;28;20073;-49
2022/10/13 03:55:39;;;;;;;20.08;11.85;;;;;;;10.95;93.22;101725.09;5031976;28;20029;-48
2022/10/13 03:58:05;;;;;;;22.35;11.85;;;;;;;10.95;92.87;101714.44;5032756;28;20025;-50
2022/10/13 04:00:30;;;;;;;21.52;11.82;;;;;;;10.95;92.70;101715.28;5032140;28;20029;-49
2022/10/13 04:02:55;;;;;;;19.58;11.63;;;;;;;10.96;92.87;101718.78;5031976;28;20112;-49
2022/10/13 04:05:20;;;;;;;16.63;11.67;;;;;;;10.96;92.91;101714.34;5031347;28;20022;-49
2022/10/13 04:07:46;;;;;;;18.48;12.00;;;;;;;10.96;92.74;101711.69;5024406;28;20300;-48
2022/10/13 04:10:11;;;;;;;16.73;11.43;;;;;;;10.97;93.03;101707.22;5031537;28;20087;-49
2022/10/13 04:12:36;;;;;;;19.27;11.80;;;;;;;10.98;92.98;101714.25;5024098;28;20091;-48
2022/10/13 04:15:03;;;;;;;19.08;11.77;;;;;;;10.98;93.15;101712.44;5032927;28;20029;-49
2022/10/13 04:17:28;;;;;;;22.20;11.80;;;;;;;11.00;93.25;101715.84;5032717;28;20071;-52
2022/10/13 04:19:54;;;;;;;17.15;11.95;;;;;;;11.01;92.91;101714.06;5030633;28;20498;-51
2022/10/13 04:22:19;;;;;;;17.35;11.95;;;;;;;11.02;93.94;101707.78;5032347;28;20022;-51
2022/10/13 04:24:44;;;;;;;18.98;12.88;;;;;;;11.03;93.91;101693.53;5029894;28;20029;-50
2022/10/13 04:27:10;;;;;;;18.35;11.48;;;;;;;11.03;93.80;101694.38;5028050;28;20053;-50
2022/10/13 04:29:35;;;;;;;23.92;12.18;;;;;;;11.03;94.05;101698.84;5036555;28;20033;-53
2022/10/13 04:32:00;;;;;;;22.10;11.93;;;;;;;11.02;94.10;101691.81;5032503;28;20024;-52
2022/10/13 04:34:25;;;;;;;21.77;12.93;;;;;;;11.02;94.17;101697.97;5036378;28;20431;-48
2022/10/13 04:36:51;;;;;;;21.40;12.27;;;;;;;11.02;94.06;101694.47;5035994;28;20026;-50
2022/10/13 04:39:17;;;;;;;17.70;12.63;;;;;;;11.02;94.02;101697.97;5032823;28;20340;-51
2022/10/13 04:41:42;;;;;;;29.00;13.38;;;;;;;11.02;94.09;101705.13;5036346;28;20433;-49
2022/10/13 04:44:07;;;;;;;20.00;12.18;;;;;;;11.03;94.14;101690.88;5036232;28;20065;-51
2022/10/13 04:46:33;;;;;;;21.23;11.95;;;;;;;11.02;94.10;101679.38;5036376;28;20124;-50
2022/10/13 04:48:58;;;;;;;19.48;12.32;;;;;;;11.03;93.84;101685.56;5033923;28;20104;-50
2022/10/13 04:51:25;;;;;;;20.70;12.48;;;;;;;11.04;93.64;101697.88;5036060;28;20029;-49
2022/10/13 04:53:58;;;;;;;23.58;12.68;;;;;;;11.06;93.59;101709.31;5035641;28;20444;-50
2022/10/13 04:56:24;;;;;;;19.63;12.32;;;;;;;11.03;93.48;101697.03;5034505;28;20075;-53
2022/10/13 04:58:50;;;;;;;21.00;12.07;;;;;;;11.04;93.73;101692.56;5034278;28;20029;-51
2022/10/13 05:01:22;;;;;;;21.30;12.80;;;;;;;11.04;93.41;101689.91;5034519;28;20060;-50
2022/10/13 05:03:56;;;;;;;21.30;11.85;;;;;;;11.04;93.38;101679.28;5029696;28;20040;-52
2022/10/13 05:06:23;;;;;;;22.05;12.73;;;;;;;11.04;93.15;101688.13;5035635;28;20083;-50
2022/10/13 05:08:49;;;;;;;19.88;12.20;;;;;;;11.03;92.79;101691.72;5026661;28;20069;-51
2022/10/13 05:11:15;;;;;;;20.48;12.40;;;;;;;11.03;92.99;101691.72;5035989;28;20072;-50
2022/10/13 05:13:41;;;;;;;22.23;12.90;;;;;;;11.03;92.87;101697.03;5019984;28;20120;-50
2022/10/13 05:16:11;;;;;;;24.30;12.95;;;;;;;11.00;93.22;101683.94;5029229;28;20056;-50
2022/10/13 05:18:37;;;;;;;21.20;11.85;;;;;;;11.02;93.04;101691.81;5023181;28;20060;-48
2022/10/13 05:21:07;;;;;;;17.48;12.07;;;;;;;11.01;93.15;101679.50;5035511;28;20026;-49
2022/10/13 05:23:32;;;;;;;20.55;12.00;;;;;;;11.01;93.10;101690.13;5028358;28;20041;-52
2022/10/13 05:26:03;;;;;;;23.15;12.23;;;;;;;11.01;93.55;101690.13;5030065;28;20097;-52
2022/10/13 05:28:29;;;;;;;19.58;12.05;;;;;;;10.99;93.46;101692.03;5035508;28;20029;-50
2022/10/13 05:30:54;;;;;;;18.65;12.18;;;;;;;10.99;93.32;101698.22;5035197;28;20026;-48
2022/10/13 05:33:20;;;;;;;17.15;12.02;;;;;;;10.99;93.22;101705.31;5028368;28;20038;-52
2022/10/13 05:35:45;;;;;;;19.63;12.02;;;;;;;10.98;93.31;101691.19;5030705;28;20032;-49
2022/10/13 05:38:10;;;;;;;18.75;12.50;;;;;;;10.98;93.41;101695.66;5034328;28;20030;-49
2022/10/13 05:40:35;;;;;;;21.08;13.40;;;;;;;10.97;93.31;101688.63;5032118;28;20072;-52
2022/10/13 05:43:01;;;;;;;22.67;12.87;;;;;;;10.96;93.52;101693.09;5035258;28;20030;-51
2022/10/13 05:45:31;;;;;;;20.38;12.70;;;;;;;10.95;93.47;101687.88;5034849;28;20642;-50
2022/10/13 05:47:56;;;;;;;21.70;11.90;;;;;;;10.92;93.60;101687.13;5034698;28;20029;-52
2022/10/13 05:50:22;;;;;;;16.63;12.23;;;;;;;10.93;92.95;101690.63;5034238;28;20559;-52
2022/10/13 05:52:47;;;;;;;21.50;12.32;;;;;;;10.92;93.58;101689.78;5033168;28;20026;-51
2022/10/13 05:55:14;;;;;;;21.00;12.60;;;;;;;10.92;93.16;101695.09;5033764;28;20053;-50
2022/10/13 05:57:43;;;;;;;20.38;13.70;;;;;;;10.92;93.62;101691.56;5028942;28;20034;-49
2022/10/13 06:00:12;;;;;;;21.65;13.20;;;;;;;10.91;93.25;101700.50;5028646;28;20391;-50
2022/10/13 06:02:58;;;;;;;19.08;12.48;;;;;;;10.94;93.83;101692.31;5034059;28;20084;-49
2022/10/13 06:05:26;;;;;;;23.80;12.93;;;;;;;10.91;94.13;101689.88;5029359;28;20029;-50
2022/10/13 06:07:54;;;;;;;21.52;13.65;;;;;;;10.92;94.16;101684.47;5029362;28;20656;-48
2022/10/13 06:10:20;;;;;;;22.58;13.05;;;;;;;10.91;93.76;101681.91;5031530;28;20057;-48
2022/10/13 06:12:45;;;;;;;21.80;12.82;;;;;;;10.91;94.30;101671.28;5032232;28;20021;-48
2022/10/13 06:15:11;;;;;;;22.52;13.70;;;;;;;10.92;93.94;101683.59;5028927;28;20068;-48
2022/10/13 06:17:37;;;;;;;20.65;13.07;;;;;;;10.93;94.21;101672.03;5032615;28;20100;-51
2022/10/13 06:20:05;;;;;;;21.52;12.55;;;;;;;10.95;94.11;101677.25;5029669;28;20519;-48
2022/10/13 06:22:31;;;;;;;23.20;13.65;;;;;;;10.95;94.55;101658.63;5032494;28;20423;-49
2022/10/13 06:24:56;;;;;;;20.85;13.18;;;;;;;10.96;93.92;101655.00;5031922;28;20080;-52
2022/10/13 06:27:21;;;;;;;23.73;13.50;;;;;;;10.96;93.65;101665.63;5028161;28;20498;-49
2022/10/13 06:29:46;;;;;;;18.83;12.77;;;;;;;10.98;93.99;101666.41;5028028;28;20072;-51
2022/10/13 06:32:12;;;;;;;22.27;13.57;;;;;;;10.98;94.00;101669.91;5030921;28;20808;-50
2022/10/13 06:34:37;;;;;;;23.63;12.52;;;;;;;10.99;94.35;101679.59;5032061;28;20079;-51
2022/10/13 06:37:02;;;;;;;23.48;13.48;;;;;;;11.00;94.37;101670.66;5031366;28;20030;-50
2022/10/13 06:39:27;;;;;;;21.20;13.43;;;;;;;11.02;94.18;101660.78;5029548;28;20048;-50
2022/10/13 06:41:54;;;;;;;20.95;13.02;;;;;;;11.02;94.50;101658.09;5029362;28;20026;-47
2022/10/13 06:44:19;;;;;;;23.75;13.48;;;;;;;11.04;94.68;101664.22;5031700;28;20413;-51
2022/10/13 06:46:44;;;;;;;20.20;13.57;;;;;;;11.06;94.22;101669.41;5031135;28;20025;-50
2022/10/13 06:49:10;;;;;;;23.95;13.65;;;;;;;11.07;94.36;101664.00;5028187;28;20049;-49
2022/10/13 06:51:35;;;;;;;24.38;14.02;;;;;;;11.10;94.65;101673.56;5029384;28;20092;-50
2022/10/13 06:54:00;;;;;;;21.70;12.82;;;;;;;11.11;94.52;101664.66;5031447;28;20080;-50
2022/10/13 06:56:28;;;;;;;24.67;12.88;;;;;;;11.11;94.75;101662.84;5030070;28;20427;-51
2022/10/13 06:58:53;;;;;;;22.58;13.55;;;;;;;11.14;94.53;101660.94;5028014;28;20035;-49
2022/10/13 07:01:19;;;;;;;24.02;12.93;;;;;;;11.17;94.52;101668.69;5029774;28;20037;-49
2022/10/13 07:03:48;;;;;;;24.30;13.43;;;;;;;11.16;94.27;101662.53;5029724;28;20033;-49
2022/10/13 07:06:13;;;;;;;22.77;14.00;;;;;;;11.19;94.20;101654.38;5029510;28;20029;-51
2022/10/13 07:08:38;;;;;;;24.40;14.20;;;;;;;11.21;94.15;101656.94;5037092;28;20370;-51
2022/10/13 07:11:09;;;;;;;24.17;13.25;;;;;;;11.22;94.50;101663.94;5028264;28;20034;-51
2022/10/13 07:13:34;;;;;;;22.25;13.57;;;;;;;11.23;94.35;101661.16;5027724;28;20483;-51
2022/10/13 07:16:03;;;;;;;21.88;13.35;;;;;;;11.23;94.28;101660.34;5031546;28;20072;-49
2022/10/13 07:18:28;;;;;;;22.45;13.35;;;;;;;11.26;94.34;101665.44;5030554;28;20554;-51
2022/10/13 07:20:53;;;;;;;22.60;14.07;;;;;;;11.27;94.36;101670.66;5033458;28;20116;-51
2022/10/13 07:23:19;;;;;;;23.17;13.90;;;;;;;11.29;94.24;101659.91;5033871;28;20044;-49
2022/10/13 07:25:44;;;;;;;28.20;14.43;;;;;;;11.33;94.21;101658.75;5032317;28;20064;-51
2022/10/13 07:28:09;;;;;;;25.77;14.63;;;;;;;11.35;94.32;101664.81;5033932;28;20021;-50
2022/10/13 07:30:38;;;;;;;23.88;13.95;;;;;;;11.36;94.15;101666.53;5033710;28;20029;-48
2022/10/13 07:33:03;;;;;;;21.30;13.57;;;;;;;11.38;94.17;101669.94;5032670;28;20033;-48
2022/10/13 07:35:28;;;;;;;21.42;14.02;;;;;;;11.42;94.09;101673.25;5031660;28;20027;-47
2022/10/13 07:37:53;;;;;;;25.13;13.85;;;;;;;11.44;94.23;101674.84;5031581;28;20018;-48
2022/10/13 07:40:19;;;;;;;27.10;14.10;;;;;;;11.47;93.88;101668.47;5028976;28;20117;-48
2022/10/13 07:42:44;;;;;;;24.20;14.48;;;;;;;11.49;94.03;101666.56;5030820;28;20021;-47
2022/10/13 07:45:09;;;;;;;30.47;13.67;;;;;;;11.52;93.83;101665.50;5030221;28;20036;-48
2022/10/13 07:47:35;;;;;;;26.30;14.30;;;;;;;11.54;93.89;101667.13;5030056;28;20638;-48
2022/10/13 07:50:00;;;;;;;25.80;15.13;;;;;;;11.58;94.24;101657.94;5033030;28;20030;-49
2022/10/13 07:52:25;;;;;;;25.02;15.38;;;;;;;11.61;93.61;101659.56;5031755;28;20463;-50
2022/10/13 07:54:51;;;;;;;27.77;15.17;;;;;;;11.65;93.76;101663.72;5027543;28;20029;-47
2022/10/13 07:57:16;;;;;;;23.63;15.37;;;;;;;11.70;93.96;101664.25;5029870;28;20292;-48
2022/10/13 07:59:41;;;;;;;23.50;16.27;;;;;;;11.75;93.49;101669.25;5030837;28;20308;-49
2022/10/13 08:02:08;;;;;;;23.50;15.18;;;;;;;11.80;93.91;101672.47;5029262;28;20029;-48
2022/10/13 08:04:34;;;;;;;26.85;17.98;;;;;;;11.85;93.28;101660.53;5027252;28;20029;-48
2022/10/13 08:06:59;;;;;;;26.58;16.55;;;;;;;11.90;93.12;101667.34;5031740;28;20128;-47
2022/10/13 08:09:25;;;;;;;26.08;16.13;;;;;;;11.95;93.37;101663.44;5032907;28;20105;-48
2022/10/13 08:11:52;;;;;;;26.10;16.20;;;;;;;11.99;93.31;101672.06;5019332;28;20067;-48
2022/10/13 08:14:17;;;;;;;25.38;16.85;;;;;;;12.02;92.65;101670.06;5024883;28;20100;-48
2022/10/13 08:16:44;;;;;;;22.63;16.05;;;;;;;12.06;92.67;101669.81;5031927;28;20110;-47
2022/10/13 08:19:14;;;;;;;23.15;15.05;;;;;;;12.09;92.22;101664.28;5032607;28;20056;-48
2022/10/13 08:21:39;;;;;;;26.27;15.13;;;;;;;12.10;91.73;101656.19;5024290;28;20041;-49
2022/10/13 08:24:06;;;;;;;26.10;15.35;;;;;;;12.14;91.27;101656.81;5032462;28;20018;-50
2022/10/13 08:26:32;;;;;;;30.08;15.13;;;;;;;12.18;91.52;101653.84;5032365;28;20021;-48
2022/10/13 08:28:57;;;;;;;24.92;14.38;;;;;;;12.24;91.27;101655.25;5032371;28;20021;-49
2022/10/13 08:31:22;;;;;;;21.65;15.20;;;;;;;12.29;91.38;101642.44;5030317;28;20475;-47
2022/10/13 08:33:47;;;;;;;29.10;15.05;;;;;;;12.35;91.44;101639.31;5032468;28;20022;-47
2022/10/13 08:36:16;;;;;;;25.02;16.38;;;;;;;12.42;90.86;101649.56;5031609;28;20053;-49
2022/10/13 08:38:42;;;;;;;32.53;17.98;;;;;;;12.46;90.81;101653.72;5029460;28;20033;-49
2022/10/13 08:41:19;;;;;;;30.77;20.23;;;;;;;12.50;90.33;101650.69;5030703;28;20033;-48
2022/10/13 08:43:49;;;;;;;28.85;15.27;;;;;;;12.55;90.41;101650.38;5030882;28;20037;-48
2022/10/13 08:46:26;;;;;;;22.02;14.95;;;;;;;12.58;90.06;101655.47;5021688;28;20325;-51
2022/10/13 08:48:52;;;;;;;23.83;14.57;;;;;;;12.62;89.83;101648.13;5030288;28;20095;-51
2022/10/13 08:51:18;;;;;;;26.77;15.13;;;;;;;12.63;89.49;101652.50;5027630;28;20026;-48
2022/10/13 08:53:45;;;;;;;26.98;15.57;;;;;;;12.66;89.80;101649.63;5030225;28;20112;-49
2022/10/13 08:56:26;;;;;;;24.48;13.93;;;;;;;12.71;89.72;101647.47;5030189;28;20033;-47
2022/10/13 08:58:55;;;;;;;22.15;14.55;;;;;;;12.72;89.15;101647.34;5029343;28;20423;-48
2022/10/13 09:01:27;;;;;;;;;;;;;;;12.81;89.07;101637.81;5031365;28;20463;-48
2022/10/13 09:04:23;;;;;;;22.30;14.05;;;;;;;12.80;88.48;101633.44;5030767;28;20352;-48
2022/10/13 09:06:56;;;;;;;22.90;15.30;;;;;;;12.84;88.55;101640.28;5029620;28;20017;-51
2022/10/13 09:09:21;;;;;;;22.20;14.70;;;;;;;12.85;88.34;101627.78;5030784;28;20473;-48
2022/10/13 09:11:49;;;;;;;22.90;14.15;;;;;;;12.86;87.74;101634.81;5031544;28;20113;-48
2022/10/13 09:14:29;;;;;;;26.25;14.38;;;;;;;12.88;87.74;101638.22;5033772;28;20032;-49
2022/10/13 09:17:11;;;;;;;25.88;15.82;;;;;;;12.86;87.59;101632.16;5033664;28;20500;-48
2022/10/13 09:19:36;;;;;;;22.88;13.68;;;;;;;12.86;87.08;101641.00;5034801;28;20068;-48
2022/10/13 09:22:23;;;;;;;23.13;14.23;;;;;;;12.88;87.67;101633.72;5035471;28;20549;-49
2022/10/13 09:25:06;;;;;;;20.50;12.98;;;;;;;12.88;87.72;101632.88;5032001;28;20064;-50
2022/10/13 09:27:46;;;;;;;25.65;17.77;;;;;;;12.89;87.78;101642.56;5029739;28;20450;-49
2022/10/13 09:30:24;;;;;;;22.33;16.05;;;;;;;12.90;87.29;101638.94;5033510;28;20041;-48
2022/10/13 09:32:49;;;;;;;24.13;15.80;;;;;;;12.89;87.44;101624.78;5033549;28;20125;-49
2022/10/13 09:35:21;;;;;;;21.80;16.48;;;;;;;12.93;87.36;101628.06;5034197;28;20116;-48
2022/10/13 09:38:03;;;;;;;23.40;15.32;;;;;;;12.95;87.59;101624.31;5033412;28;20037;-48
2022/10/13 09:40:31;;;;;;;24.40;14.88;;;;;;;12.96;87.41;101626.03;5025612;28;20038;-48
2022/10/13 09:42:58;;;;;;;32.38;18.60;;;;;;;12.96;87.10;101623.34;5032262;28;20049;-48
2022/10/13 09:45:25;;;;;;;28.20;17.67;;;;;;;12.98;87.10;101628.56;5022504;28;20034;-51
2022/10/13 09:47:53;;;;;;;27.25;16.55;;;;;;;12.99;87.18;101618.75;5033182;28;20124;-47
2022/10/13 09:50:23;;;;;;;25.83;16.50;;;;;;;12.98;87.60;101620.56;5028870;28;20446;-52
2022/10/13 09:52:49;;;;;;;27.15;17.27;;;;;;;12.99;88.61;101626.75;5031055;28;20467;-49
2022/10/13 09:55:41;;;;;;;24.83;15.95;;;;;;;13.00;88.32;101623.97;5033630;28;20032;-48
2022/10/13 09:58:26;;;;;;;24.30;16.50;;;;;;;13.00;89.33;101621.31;5029186;28;20124;-50
2022/10/13 10:00:53;;;;;;;25.38;15.63;;;;;;;12.97;89.49;101618.84;5025772;28;20079;-48
2022/10/13 10:03:23;;;;;;;27.20;16.88;;;;;;;12.98;89.48;101620.56;5032936;28;20479;-48
2022/10/13 10:05:51;;;;;;;27.70;17.38;;;;;;;12.95;90.25;101618.97;5029238;28;20044;-51
2022/10/13 10:08:32;;;;;;;25.25;18.15;;;;;;;12.98;90.42;101617.91;5032657;28;20083;-49
2022/10/13 10:11:02;;;;;;;23.20;16.95;;;;;;;12.97;91.15;101618.84;5028684;28;20033;-52
2022/10/13 10:13:27;;;;;;;24.98;16.35;;;;;;;12.96;90.39;101617.19;5032247;28;20080;-52
2022/10/13 10:16:04;;;;;;;25.70;16.90;;;;;;;12.95;91.36;101618.13;5031768;28;20456;-52
2022/10/13 10:18:46;;;;;;;24.65;15.63;;;;;;;12.94;91.04;101608.44;5030017;28;20176;-51
2022/10/13 10:21:42;;;;;;;23.88;15.32;;;;;;;12.95;90.90;101602.13;5030048;28;20082;-48
2022/10/13 10:24:17;;;;;;;20.27;15.23;;;;;;;12.92;90.93;101610.34;5010013;28;20120;-47
2022/10/13 10:26:56;;;;;;;26.90;15.93;;;;;;;12.93;90.59;101604.91;5031205;28;20040;-47
2022/10/13 10:29:52;;;;;;;26.05;15.95;;;;;;;12.97;90.67;101605.53;5033521;28;20040;-48
2022/10/13 10:32:41;;;;;;;23.63;15.65;;;;;;;12.94;91.08;101601.28;5028894;28;20053;-47
2022/10/13 10:35:34;;;;;;;23.48;15.30;;;;;;;12.93;91.58;101607.56;5029967;28;20515;-49
2022/10/13 10:38:41;;;;;;;25.65;15.75;;;;;;;12.96;90.95;101607.34;5030521;28;20040;-52
2022/10/13 10:41:34;;;;;;;23.40;15.45;;;;;;;12.99;91.35;101606.28;4955203;28;20101;-50
2022/10/13 10:44:22;;;;;;;28.27;16.73;;;;;;;13.00;91.66;101602.63;5027227;28;20037;-48
2022/10/13 10:46:49;;;;;;;26.88;17.20;;;;;;;13.02;91.81;101599.84;5018243;28;20526;-50
2022/10/13 10:49:29;;;;;;;24.58;16.75;;;;;;;13.03;91.75;101606.91;5031857;28;20070;-50
2022/10/13 10:51:56;;;;;;;25.10;16.63;;;;;;;13.03;91.86;101605.06;5030817;28;20040;-51
2022/10/13 10:54:33;;;;;;;23.50;16.33;;;;;;;13.05;91.20;101604.97;5025727;28;20273;-51
2022/10/13 10:57:36;;;;;;;24.15;15.77;;;;;;;13.11;91.37;101600.03;5031140;28;20100;-47
2022/10/13 11:00:12;;;;;;;28.85;15.88;;;;;;;13.10;91.06;101598.31;5031213;28;20132;-50
2022/10/13 11:03:16;;;;;;;24.05;16.13;;;;;;;13.13;91.12;101598.09;5025032;28;20494;-48
2022/10/13 11:05:58;;;;;;;23.30;15.60;;;;;;;13.16;91.27;101585.50;5002983;28;20095;-48
2022/10/13 11:08:45;;;;;;;24.38;15.38;;;;;;;13.18;91.05;101588.91;5032047;28;20080;-48
2022/10/13 11:11:24;;;;;;;20.98;15.93;;;;;;;13.21;91.50;101586.84;5031506;28;20049;-47
2022/10/13 11:13:52;;;;;;;22.23;14.73;;;;;;;13.21;91.68;101586.00;5025406;28;20025;-51
2022/10/13 11:16:54;;;;;;;22.67;14.75;;;;;;;13.24;91.12;101578.59;5017316;28;20046;-48
2022/10/13 11:19:39;;;;;;;24.92;15.05;;;;;;;13.24;91.66;101585.75;5030510;28;20033;-48
2022/10/13 11:22:04;;;;;;;21.35;13.30;;;;;;;13.24;91.30;101586.63;5024172;28;20056;-48